createdAt,value
2022-07-25T00:00:32.694Z,14.39
2022-07-25T00:02:34.928Z,14.45
2022-07-25T00:04:36.730Z,14.25
2022-07-25T00:06:39.485Z,14.41
2022-07-25T00:08:41.434Z,14.36
2022-07-25T00:10:43.196Z,14.23
2022-07-25T00:12:45.549Z,14.26
2022-07-25T00:14:47.964Z,14.02
2022-07-25T00:16:49.728Z,14.23
2022-07-25T00:18:51.491Z,14.23
2022-07-25T00:20:53.739Z,14.23
2022-07-25T00:22:55.481Z,14.21
2022-07-25T00:24:57.266Z,14.21
2022-07-25T00:26:59.236Z,14.07
2022-07-25T00:29:01.219Z,14.12
2022-07-25T00:31:02.975Z,14.12
2022-07-25T00:33:05.514Z,14.16
2022-07-25T00:35:07.654Z,14.16
2022-07-25T00:37:09.397Z,13.91
2022-07-25T00:39:11.418Z,14.01
2022-07-25T00:41:13.168Z,13.98
2022-07-25T00:43:14.979Z,13.96
2022-07-25T00:45:16.875Z,13.97
2022-07-25T00:47:18.659Z,13.85
2022-07-25T00:49:20.733Z,13.83
2022-07-25T00:51:23.108Z,13.91
2022-07-25T00:53:25.906Z,13.88
2022-07-25T00:55:29.194Z,13.85
2022-07-25T00:57:31.231Z,13.78
2022-07-25T00:59:33.091Z,13.80
2022-07-25T01:01:35.397Z,13.73
2022-07-25T01:03:37.244Z,13.71
2022-07-25T01:05:39.032Z,13.74
2022-07-25T01:07:41.082Z,13.71
2022-07-25T01:09:43.752Z,13.68
2022-07-25T01:11:45.516Z,13.64
2022-07-25T01:13:47.279Z,13.53
2022-07-25T01:15:49.229Z,13.47
2022-07-25T01:17:51.422Z,13.59
2022-07-25T01:19:53.198Z,13.51
2022-07-25T01:21:55.216Z,13.63
2022-07-25T01:23:57.062Z,13.63
2022-07-25T01:25:59.093Z,13.58
2022-07-25T01:28:02.131Z,13.65
2022-07-25T01:30:06.756Z,13.60
2022-07-25T01:32:08.649Z,13.57
2022-07-25T01:34:10.531Z,13.61
2022-07-25T01:36:12.553Z,13.58
2022-07-25T01:38:15.442Z,13.58
2022-07-25T01:40:17.285Z,13.48
2022-07-25T01:42:19.059Z,13.57
2022-07-25T01:44:20.857Z,13.41
2022-07-25T01:46:22.897Z,13.48
2022-07-25T01:48:24.823Z,13.46
2022-07-25T01:50:27.005Z,13.50
2022-07-25T01:52:29.480Z,13.55
2022-07-25T01:54:31.211Z,13.48
2022-07-25T01:56:34.205Z,13.41
2022-07-25T01:58:36.093Z,13.40
2022-07-25T02:00:38.088Z,13.39
2022-07-25T02:02:41.490Z,13.36
2022-07-25T02:04:43.345Z,13.29
2022-07-25T02:06:45.160Z,13.29
2022-07-25T02:08:47.285Z,13.16
2022-07-25T02:10:49.879Z,13.12
2022-07-25T02:12:51.652Z,13.04
2022-07-25T02:14:53.609Z,13.09
2022-07-25T02:16:55.526Z,13.08
2022-07-25T02:18:57.387Z,12.99
2022-07-25T02:20:59.142Z,12.99
2022-07-25T02:23:00.909Z,12.80
2022-07-25T02:25:02.693Z,12.95
2022-07-25T02:27:05.565Z,12.87
2022-07-25T02:29:07.507Z,13.02
2022-07-25T02:31:10.121Z,12.98
2022-07-25T02:33:12.104Z,12.91
2022-07-25T02:35:14.234Z,12.98
2022-07-25T02:37:16.089Z,13.03
2022-07-25T02:39:17.924Z,12.99
2022-07-25T02:41:20.068Z,12.94
2022-07-25T02:43:21.786Z,13.01
2022-07-25T02:45:23.709Z,12.93
2022-07-25T02:47:25.651Z,13.04
2022-07-25T02:49:27.401Z,12.99
2022-07-25T02:51:29.191Z,13.09
2022-07-25T02:53:54.752Z,13.02
2022-07-25T02:55:52.804Z,12.99
2022-07-25T02:57:55.016Z,12.95
2022-07-25T02:59:56.993Z,12.91
2022-07-25T03:01:58.705Z,13.01
2022-07-25T03:04:00.680Z,12.96
2022-07-25T03:06:02.830Z,12.92
2022-07-25T03:08:04.991Z,12.90
2022-07-25T03:10:11.005Z,12.87
2022-07-25T03:12:13.731Z,12.81
2022-07-25T03:14:15.442Z,12.98
2022-07-25T03:16:17.616Z,13.00
2022-07-25T03:18:19.553Z,13.05
2022-07-25T03:20:21.312Z,13.12
2022-07-25T03:22:26.434Z,13.15
2022-07-25T03:24:28.423Z,13.10
2022-07-25T03:26:30.226Z,13.20
2022-07-25T03:28:32.312Z,13.22
2022-07-25T03:30:34.214Z,13.31
2022-07-25T03:32:35.921Z,13.39
2022-07-25T03:34:37.998Z,13.53
2022-07-25T03:36:39.842Z,13.52
2022-07-25T03:38:41.580Z,13.67
2022-07-25T03:40:43.445Z,13.74
2022-07-25T03:42:45.250Z,13.76
2022-07-25T03:44:47.000Z,13.74
2022-07-25T03:46:48.931Z,13.79
2022-07-25T03:48:50.971Z,13.92
2022-07-25T03:50:52.775Z,13.89
2022-07-25T03:52:54.695Z,13.90
2022-07-25T03:54:56.619Z,14.04
2022-07-25T03:56:58.334Z,13.92
2022-07-25T03:59:00.041Z,14.05
2022-07-25T04:01:01.981Z,14.17
2022-07-25T04:03:06.038Z,14.20
2022-07-25T04:05:08.633Z,14.20
2022-07-25T04:07:10.504Z,14.37
2022-07-25T04:09:13.540Z,14.49
2022-07-25T04:11:15.458Z,14.58
2022-07-25T04:13:17.572Z,14.69
2022-07-25T04:15:19.439Z,14.79
2022-07-25T04:17:21.188Z,14.71
2022-07-25T04:19:23.256Z,14.83
2022-07-25T04:21:28.632Z,15.10
2022-07-25T04:23:30.758Z,15.24
2022-07-25T04:25:32.716Z,15.37
2022-07-25T04:27:34.451Z,15.39
2022-07-25T04:29:36.220Z,15.50
2022-07-25T04:31:37.972Z,15.60
2022-07-25T04:33:40.679Z,15.65
2022-07-25T04:35:42.750Z,15.74
2022-07-25T04:37:44.802Z,15.87
2022-07-25T04:39:46.535Z,15.97
2022-07-25T04:41:48.357Z,15.88
2022-07-25T04:43:50.080Z,16.19
2022-07-25T04:45:51.912Z,16.02
2022-07-25T04:47:53.753Z,16.58
2022-07-25T04:49:55.483Z,17.16
2022-07-25T04:51:57.330Z,17.10
2022-07-25T04:53:59.070Z,16.89
2022-07-25T04:56:00.790Z,16.99
2022-07-25T04:58:02.902Z,17.05
2022-07-25T05:00:06.307Z,17.17
2022-07-25T05:02:08.105Z,17.18
2022-07-25T05:04:10.234Z,17.40
2022-07-25T05:06:12.086Z,17.53
2022-07-25T05:08:15.570Z,17.59
2022-07-25T05:10:17.823Z,17.82
2022-07-25T05:12:19.820Z,17.82
2022-07-25T05:14:21.540Z,17.79
2022-07-25T05:16:23.307Z,17.88
2022-07-25T05:18:25.109Z,18.05
2022-07-25T05:20:27.775Z,18.05
2022-07-25T05:22:29.573Z,18.14
2022-07-25T05:24:35.873Z,18.39
2022-07-25T05:26:37.604Z,18.57
2022-07-25T05:28:39.413Z,18.77
2022-07-25T05:30:41.148Z,18.96
2022-07-25T05:32:43.142Z,19.16
2022-07-25T05:34:45.324Z,19.35
2022-07-25T05:36:47.596Z,19.33
2022-07-25T05:38:49.420Z,19.48
2022-07-25T05:40:51.323Z,19.66
2022-07-25T05:42:53.053Z,19.68
2022-07-25T05:44:55.008Z,19.89
2022-07-25T05:46:57.028Z,19.98
2022-07-25T05:48:58.938Z,20.09
2022-07-25T05:51:00.720Z,19.89
2022-07-25T05:53:02.433Z,19.95
2022-07-25T05:55:04.437Z,20.26
2022-07-25T05:57:06.934Z,20.57
2022-07-25T05:59:08.705Z,20.61
2022-07-25T06:01:14.548Z,21.08
2022-07-25T06:03:16.562Z,21.17
2022-07-25T06:05:18.555Z,21.44
2022-07-25T06:07:20.315Z,22.01
2022-07-25T06:09:23.277Z,22.29
2022-07-25T06:11:25.241Z,22.22
2022-07-25T06:13:28.194Z,22.85
2022-07-25T06:15:30.198Z,23.30
2022-07-25T06:17:32.606Z,23.67
2022-07-25T06:19:34.707Z,23.92
2022-07-25T06:21:36.804Z,23.96
2022-07-25T06:23:38.805Z,24.48
2022-07-25T06:25:40.694Z,24.63
2022-07-25T06:27:43.062Z,25.19
2022-07-25T06:29:44.775Z,25.74
2022-07-25T06:31:47.449Z,25.65
2022-07-25T06:33:49.437Z,25.47
2022-07-25T06:35:51.390Z,25.81
2022-07-25T06:37:53.266Z,24.89
2022-07-25T06:39:55.289Z,24.74
2022-07-25T06:41:57.216Z,25.11
2022-07-25T06:43:58.947Z,25.77
2022-07-25T06:46:00.763Z,26.07
2022-07-25T06:48:02.527Z,26.43
2022-07-25T06:50:05.979Z,26.37
2022-07-25T06:52:09.799Z,26.93
2022-07-25T06:54:11.591Z,27.65
2022-07-25T06:56:17.490Z,27.93
2022-07-25T06:58:19.891Z,27.49
2022-07-25T07:00:26.124Z,27.59
2022-07-25T07:02:27.869Z,27.93
2022-07-25T07:04:29.949Z,27.99
2022-07-25T07:06:31.770Z,27.86
2022-07-25T07:08:34.110Z,27.76
2022-07-25T07:10:35.935Z,27.88
2022-07-25T07:12:37.858Z,28.05
2022-07-25T07:14:41.427Z,28.10
2022-07-25T07:16:43.273Z,28.29
2022-07-25T07:18:49.106Z,28.41
2022-07-25T07:20:51.465Z,28.18
2022-07-25T07:22:53.219Z,28.57
2022-07-25T07:24:55.011Z,28.32
2022-07-25T07:26:57.376Z,28.80
2022-07-25T07:28:59.607Z,29.12
2022-07-25T07:31:17.627Z,28.52
2022-07-25T07:33:19.710Z,28.11
2022-07-25T07:35:21.600Z,28.12
2022-07-25T07:37:23.374Z,27.80
2022-07-25T07:39:25.166Z,28.42
2022-07-25T07:41:26.966Z,29.06
2022-07-25T07:43:30.422Z,29.02
2022-07-25T07:45:32.817Z,29.24
2022-07-25T07:47:34.708Z,29.41
2022-07-25T07:49:37.124Z,28.90
2022-07-25T07:51:39.028Z,27.56
2022-07-25T07:53:40.783Z,27.88
2022-07-25T07:55:42.694Z,28.37
2022-07-25T07:57:44.454Z,28.79
2022-07-25T07:59:46.242Z,28.63
2022-07-25T08:01:48.183Z,28.07
2022-07-25T08:03:49.937Z,28.64
2022-07-25T08:05:51.838Z,28.46
2022-07-25T08:07:54.626Z,28.19
2022-07-25T08:09:56.362Z,28.61
2022-07-25T08:11:58.504Z,28.57
2022-07-25T08:14:00.355Z,28.59
2022-07-25T08:16:02.740Z,29.09
2022-07-25T08:18:04.776Z,29.01
2022-07-25T08:20:37.491Z,29.32
2022-07-25T08:22:42.895Z,28.95
2022-07-25T08:24:44.749Z,29.29
2022-07-25T08:26:46.572Z,29.36
2022-07-25T08:28:52.555Z,29.47
2022-07-25T08:31:02.270Z,28.82
2022-07-25T08:33:06.678Z,28.97
2022-07-25T08:35:11.521Z,28.45
2022-07-25T08:37:13.406Z,28.33
2022-07-25T08:39:15.209Z,28.33
2022-07-25T08:41:17.032Z,28.25
2022-07-25T08:43:26.894Z,27.68
2022-07-25T08:45:29.263Z,28.14
2022-07-25T08:47:31.917Z,28.10
2022-07-25T08:49:35.332Z,27.96
2022-07-25T08:51:37.704Z,27.43
2022-07-25T08:53:40.178Z,27.31
2022-07-25T08:55:42.157Z,27.81
2022-07-25T08:57:44.024Z,27.50
2022-07-25T08:59:45.814Z,27.47
2022-07-25T09:01:47.822Z,27.23
2022-07-25T09:03:49.842Z,26.74
2022-07-25T09:05:51.677Z,26.79
2022-07-25T09:07:55.053Z,27.03
2022-07-25T09:09:56.912Z,27.29
2022-07-25T09:11:59.017Z,27.31
2022-07-25T09:14:07.156Z,26.79
2022-07-25T09:16:10.287Z,26.94
2022-07-25T09:18:14.521Z,27.39
2022-07-25T09:20:18.588Z,27.81
2022-07-25T09:22:20.621Z,27.67
2022-07-25T09:24:22.361Z,27.33
2022-07-25T09:26:24.298Z,27.45
2022-07-25T09:28:26.395Z,27.24
2022-07-25T09:30:28.136Z,27.56
2022-07-25T09:32:30.089Z,27.54
2022-07-25T09:34:38.163Z,27.10
2022-07-25T09:36:52.362Z,26.97
2022-07-25T09:39:01.672Z,27.18
2022-07-25T09:41:04.037Z,27.74
2022-07-25T09:43:06.125Z,27.42
2022-07-25T09:45:13.856Z,27.46
2022-07-25T09:47:15.855Z,27.90
2022-07-25T09:49:17.671Z,27.64
2022-07-25T09:51:19.833Z,28.10
2022-07-25T09:53:21.800Z,28.27
2022-07-25T09:55:24.363Z,27.90
2022-07-25T09:57:27.605Z,27.87
2022-07-25T09:59:29.619Z,27.81
2022-07-25T10:01:37.994Z,27.75
2022-07-25T10:03:51.130Z,27.35
2022-07-25T10:06:02.485Z,27.55
2022-07-25T10:08:07.761Z,27.95
2022-07-25T10:10:20.925Z,28.08
2022-07-25T10:12:23.964Z,28.33
2022-07-25T10:14:25.785Z,28.32
2022-07-25T10:16:28.022Z,28.16
2022-07-25T10:18:30.834Z,28.52
2022-07-25T10:20:32.568Z,28.60
2022-07-25T10:22:55.824Z,28.67
2022-07-25T10:25:12.577Z,28.61
2022-07-25T10:27:21.859Z,28.20
2022-07-25T10:29:34.124Z,28.35
2022-07-25T10:31:38.863Z,28.48
2022-07-25T10:33:43.728Z,28.44
2022-07-25T10:35:46.036Z,28.27
2022-07-25T10:37:51.357Z,28.56
2022-07-25T10:39:53.467Z,28.93
2022-07-25T10:41:59.093Z,28.80
2022-07-25T10:44:01.655Z,29.03
2022-07-25T10:46:13.638Z,28.56
2022-07-25T10:48:23.626Z,28.37
2022-07-25T10:50:53.329Z,28.64
2022-07-25T10:52:58.813Z,28.71
2022-07-25T10:55:01.511Z,28.54
2022-07-25T10:57:04.704Z,28.92
2022-07-25T10:59:06.728Z,28.86
2022-07-25T11:01:08.956Z,28.92
2022-07-25T11:03:14.686Z,28.77
2022-07-25T11:05:19.810Z,28.48
2022-07-25T11:07:21.714Z,28.42
2022-07-25T11:09:28.578Z,28.73
2022-07-25T11:11:38.347Z,28.87
2022-07-25T11:13:42.024Z,28.63
2022-07-25T11:15:44.666Z,28.69
2022-07-25T11:17:51.812Z,28.92
2022-07-25T11:20:01.618Z,28.60
2022-07-25T11:22:03.458Z,28.53
2022-07-25T11:24:05.358Z,28.26
2022-07-25T11:26:13.725Z,28.59
2022-07-25T11:28:15.655Z,28.47
2022-07-25T11:30:19.277Z,28.76
2022-07-25T11:32:21.197Z,28.30
2022-07-25T11:34:29.561Z,28.06
2022-07-25T11:36:31.569Z,27.96
2022-07-25T11:38:34.556Z,28.31
2022-07-25T11:40:43.374Z,28.33
2022-07-25T11:42:56.861Z,28.39
2022-07-25T11:44:59.200Z,28.55
2022-07-25T11:47:01.580Z,28.47
2022-07-25T11:49:05.931Z,28.90
2022-07-25T11:51:12.641Z,28.91
2022-07-25T11:53:18.294Z,28.73
2022-07-25T11:55:29.237Z,28.95
2022-07-25T11:57:35.929Z,29.14
2022-07-25T11:59:43.819Z,29.38
2022-07-25T12:01:45.611Z,28.79
2022-07-25T12:03:47.810Z,28.56
2022-07-25T12:05:50.231Z,28.89
2022-07-25T12:07:54.739Z,29.15
2022-07-25T12:09:57.680Z,28.79
2022-07-25T12:12:04.298Z,28.95
2022-07-25T12:14:06.746Z,29.31
2022-07-25T12:16:08.832Z,29.48
2022-07-25T12:18:10.597Z,29.33
2022-07-25T12:20:26.910Z,29.28
2022-07-25T12:22:28.738Z,29.23
2022-07-25T12:24:30.440Z,29.29
2022-07-25T12:26:32.160Z,29.22
2022-07-25T12:28:34.250Z,29.39
2022-07-25T12:30:36.233Z,29.25
2022-07-25T12:32:39.177Z,28.85
2022-07-25T12:34:40.984Z,28.79
2022-07-25T12:36:42.898Z,28.79
2022-07-25T12:38:44.648Z,29.08
2022-07-25T12:40:46.542Z,29.32
2022-07-25T12:42:48.674Z,29.09
2022-07-25T12:44:50.481Z,29.06
2022-07-25T12:46:52.730Z,28.96
2022-07-25T12:48:54.792Z,28.91
2022-07-25T12:50:56.576Z,28.98
2022-07-25T12:52:58.570Z,29.14
2022-07-25T12:55:00.386Z,29.26
2022-07-25T12:57:02.131Z,29.28
2022-07-25T12:59:04.098Z,29.39
2022-07-25T13:01:06.401Z,29.28
2022-07-25T13:03:08.220Z,29.45
2022-07-25T13:05:10.355Z,29.10
2022-07-25T13:07:13.305Z,28.81
2022-07-25T13:09:15.070Z,28.64
2022-07-25T13:11:17.038Z,28.78
2022-07-25T13:13:18.744Z,28.89
2022-07-25T13:15:20.499Z,28.92
2022-07-25T13:17:27.256Z,29.09
2022-07-25T13:19:29.744Z,29.12
2022-07-25T13:21:31.550Z,28.91
2022-07-25T13:23:33.497Z,28.83
2022-07-25T13:25:35.433Z,29.24
2022-07-25T13:27:37.771Z,29.21
2022-07-25T13:29:39.623Z,28.92
2022-07-25T13:31:42.284Z,29.17
2022-07-25T13:33:44.479Z,29.31
2022-07-25T13:35:46.425Z,29.33
2022-07-25T13:37:48.433Z,29.25
2022-07-25T13:39:50.472Z,29.42
2022-07-25T13:41:52.273Z,29.13
2022-07-25T13:43:54.746Z,29.45
2022-07-25T13:45:56.624Z,28.97
2022-07-25T13:48:26.809Z,29.02
2022-07-25T13:50:20.379Z,29.24
2022-07-25T13:52:22.165Z,29.30
2022-07-25T13:54:24.000Z,29.00
2022-07-25T13:56:25.819Z,28.99
2022-07-25T13:58:28.230Z,29.33
2022-07-25T14:00:30.151Z,29.09
2022-07-25T14:02:32.344Z,29.01
2022-07-25T14:04:34.114Z,29.17
2022-07-25T14:06:36.201Z,29.67
2022-07-25T14:08:42.303Z,29.37
2022-07-25T14:10:44.062Z,29.56
2022-07-25T14:12:46.236Z,29.35
2022-07-25T14:14:48.353Z,29.41
2022-07-25T14:16:50.264Z,29.54
2022-07-25T14:18:52.316Z,29.74
2022-07-25T14:20:54.573Z,29.82
2022-07-25T14:22:56.422Z,29.70
2022-07-25T14:24:58.779Z,29.06
2022-07-25T14:27:00.706Z,29.22
2022-07-25T14:29:02.627Z,29.64
2022-07-25T14:31:04.883Z,29.57
2022-07-25T14:33:06.724Z,29.42
2022-07-25T14:35:08.867Z,29.51
2022-07-25T14:37:11.070Z,29.38
2022-07-25T14:39:13.236Z,29.45
2022-07-25T14:41:15.182Z,29.75
2022-07-25T14:43:19.214Z,29.59
2022-07-25T14:45:21.122Z,29.34
2022-07-25T14:47:23.409Z,29.32
2022-07-25T14:49:29.357Z,29.47
2022-07-25T14:51:31.292Z,29.73
2022-07-25T14:53:34.089Z,29.36
2022-07-25T14:55:37.367Z,29.53
2022-07-25T14:57:39.068Z,29.33
2022-07-25T14:59:40.881Z,29.49
2022-07-25T15:01:45.681Z,29.57
2022-07-25T15:03:47.471Z,29.43
2022-07-25T15:05:49.217Z,29.69
2022-07-25T15:07:51.520Z,29.53
2022-07-25T15:09:53.338Z,29.22
2022-07-25T15:11:55.175Z,29.11
2022-07-25T15:13:57.289Z,29.26
2022-07-25T15:15:59.672Z,29.50
2022-07-25T15:18:01.453Z,29.43
2022-07-25T15:20:03.806Z,29.69
2022-07-25T15:22:05.884Z,29.57
2022-07-25T15:24:07.755Z,29.40
2022-07-25T15:26:09.701Z,29.53
2022-07-25T15:28:11.709Z,29.28
2022-07-25T15:30:13.639Z,29.51
2022-07-25T15:32:15.592Z,29.59
2022-07-25T15:34:17.492Z,29.76
2022-07-25T15:36:19.761Z,29.83
2022-07-25T15:38:21.743Z,29.62
2022-07-25T15:40:23.571Z,29.61
2022-07-25T15:42:29.021Z,29.66
2022-07-25T15:44:31.412Z,29.49
2022-07-25T15:46:33.386Z,29.25
2022-07-25T15:48:35.229Z,29.39
2022-07-25T15:50:42.509Z,29.62
2022-07-25T15:52:44.387Z,29.75
2022-07-25T15:54:46.138Z,29.39
2022-07-25T15:56:48.286Z,29.36
2022-07-25T15:58:50.268Z,29.29
2022-07-25T16:00:52.059Z,29.43
2022-07-25T16:02:54.106Z,29.37
2022-07-25T16:04:55.952Z,29.32
2022-07-25T16:06:58.846Z,29.45
2022-07-25T16:09:00.934Z,29.35
2022-07-25T16:11:03.573Z,29.28
2022-07-25T16:13:05.901Z,29.10
2022-07-25T16:15:09.631Z,29.21
2022-07-25T16:17:11.430Z,29.48
2022-07-25T16:19:13.202Z,29.39
2022-07-25T16:21:15.123Z,29.18
2022-07-25T16:23:19.357Z,29.03
2022-07-25T16:25:22.275Z,28.98
2022-07-25T16:27:24.127Z,29.08
2022-07-25T16:29:27.806Z,29.22
2022-07-25T16:31:29.933Z,29.02
2022-07-25T16:33:32.138Z,29.03
2022-07-25T16:35:34.160Z,28.63
2022-07-25T16:37:35.950Z,28.54
2022-07-25T16:39:37.779Z,28.69
2022-07-25T16:41:39.555Z,28.62
2022-07-25T16:43:41.289Z,28.61
2022-07-25T16:45:45.633Z,28.52
2022-07-25T16:47:47.455Z,28.53
2022-07-25T16:49:49.782Z,28.61
2022-07-25T16:51:51.866Z,28.69
2022-07-25T16:53:53.996Z,28.93
2022-07-25T16:55:55.913Z,28.89
2022-07-25T16:57:58.878Z,28.85
2022-07-25T17:00:00.758Z,28.82
2022-07-25T17:02:02.776Z,28.73
2022-07-25T17:04:05.328Z,28.73
2022-07-25T17:06:07.621Z,28.66
2022-07-25T17:08:09.381Z,28.59
2022-07-25T17:10:11.293Z,28.27
2022-07-25T17:12:13.032Z,28.18
2022-07-25T17:14:15.022Z,28.42
2022-07-25T17:16:18.617Z,28.46
2022-07-25T17:18:23.670Z,28.23
2022-07-25T17:20:28.346Z,28.01
2022-07-25T17:22:30.241Z,27.79
2022-07-25T17:24:32.350Z,27.91
2022-07-25T17:26:35.373Z,27.95
2022-07-25T17:28:38.445Z,27.81
2022-07-25T17:30:43.184Z,27.73
2022-07-25T17:32:45.063Z,27.46
2022-07-25T17:34:47.017Z,27.40
2022-07-25T17:36:48.816Z,27.31
2022-07-25T17:38:50.881Z,27.33
2022-07-25T17:40:53.396Z,27.30
2022-07-25T17:42:56.956Z,27.07
2022-07-25T17:44:58.842Z,27.01
2022-07-25T17:47:00.809Z,27.04
2022-07-25T17:49:05.071Z,27.03
2022-07-25T17:51:08.147Z,26.93
2022-07-25T17:53:09.920Z,26.76
2022-07-25T17:55:12.030Z,26.73
2022-07-25T17:57:14.604Z,26.59
2022-07-25T17:59:17.137Z,26.58
2022-07-25T18:01:19.295Z,26.20
2022-07-25T18:03:21.207Z,26.24
2022-07-25T18:05:23.154Z,26.12
2022-07-25T18:07:25.016Z,25.98
2022-07-25T18:09:26.813Z,26.07
2022-07-25T18:11:28.726Z,25.99
2022-07-25T18:13:30.823Z,25.94
2022-07-25T18:15:32.630Z,25.84
2022-07-25T18:17:36.085Z,25.72
2022-07-25T18:19:38.283Z,25.57
2022-07-25T18:21:40.036Z,25.53
2022-07-25T18:23:42.843Z,25.43
2022-07-25T18:25:45.224Z,25.22
2022-07-25T18:27:48.578Z,25.30
2022-07-25T18:29:50.660Z,25.27
2022-07-25T18:31:52.679Z,25.17
2022-07-25T18:33:54.512Z,25.16
2022-07-25T18:35:56.569Z,25.00
2022-07-25T18:37:58.665Z,25.01
2022-07-25T18:40:05.995Z,24.96
2022-07-25T18:42:08.165Z,24.80
2022-07-25T18:44:10.827Z,24.76
2022-07-25T18:46:13.295Z,24.67
2022-07-25T18:48:16.314Z,24.64
2022-07-25T18:50:19.301Z,24.64
2022-07-25T18:52:22.355Z,24.54
2022-07-25T18:54:24.262Z,24.51
2022-07-25T18:56:26.049Z,24.47
2022-07-25T18:58:27.914Z,24.31
2022-07-25T19:00:31.334Z,24.30
2022-07-25T19:02:33.074Z,24.25
2022-07-25T19:04:34.988Z,24.15
2022-07-25T19:06:38.036Z,24.18
2022-07-25T19:08:39.955Z,24.07
2022-07-25T19:10:41.865Z,23.96
2022-07-25T19:12:47.689Z,23.97
2022-07-25T19:14:50.619Z,23.84
2022-07-25T19:16:53.716Z,23.92
2022-07-25T19:19:01.153Z,23.86
2022-07-25T19:21:03.484Z,23.77
2022-07-25T19:23:05.455Z,23.51
2022-07-25T19:25:07.741Z,23.63
2022-07-25T19:27:10.181Z,23.56
2022-07-25T19:29:12.626Z,23.52
2022-07-25T19:31:15.002Z,23.40
2022-07-25T19:33:16.812Z,23.34
2022-07-25T19:35:24.046Z,23.25
2022-07-25T19:37:27.510Z,23.20
2022-07-25T19:39:29.372Z,23.11
2022-07-25T19:41:31.226Z,23.08
2022-07-25T19:43:35.045Z,23.08
2022-07-25T19:45:36.995Z,22.98
2022-07-25T19:47:38.941Z,22.84
2022-07-25T19:49:41.362Z,22.51
2022-07-25T19:51:43.182Z,22.60
2022-07-25T19:53:44.982Z,22.45
2022-07-25T19:55:49.150Z,22.33
2022-07-25T19:57:50.892Z,22.36
2022-07-25T19:59:52.691Z,22.40
2022-07-25T20:01:54.742Z,22.34
2022-07-25T20:03:56.565Z,22.35
2022-07-25T20:05:58.305Z,22.27
2022-07-25T20:08:00.264Z,22.34
2022-07-25T20:10:02.066Z,22.18
2022-07-25T20:12:04.092Z,22.22
2022-07-25T20:14:06.321Z,22.19
2022-07-25T20:16:08.637Z,22.22
2022-07-25T20:18:12.177Z,22.12
2022-07-25T20:20:16.802Z,22.04
2022-07-25T20:22:19.639Z,22.10
2022-07-25T20:24:21.964Z,21.96
2022-07-25T20:26:23.929Z,21.92
2022-07-25T20:28:25.722Z,21.79
2022-07-25T20:30:31.608Z,21.76
2022-07-25T20:32:37.947Z,21.63
2022-07-25T20:34:40.302Z,21.66
2022-07-25T20:36:42.809Z,21.59
2022-07-25T20:38:44.714Z,21.56
2022-07-25T20:40:49.788Z,21.50
2022-07-25T20:42:51.881Z,21.35
2022-07-25T20:44:53.684Z,21.39
2022-07-25T20:46:55.435Z,21.31
2022-07-25T20:48:58.743Z,21.25
2022-07-25T20:51:01.242Z,21.26
2022-07-25T20:53:03.848Z,21.02
2022-07-25T20:55:06.646Z,20.90
2022-07-25T20:57:09.156Z,20.89
2022-07-25T20:59:11.716Z,20.83
2022-07-25T21:01:13.633Z,20.89
2022-07-25T21:03:15.635Z,20.76
2022-07-25T21:05:17.494Z,20.87
2022-07-25T21:07:19.284Z,20.76
2022-07-25T21:09:21.297Z,20.95
2022-07-25T21:11:23.256Z,20.83
2022-07-25T21:13:25.456Z,20.77
2022-07-25T21:15:33.268Z,20.66
2022-07-25T21:17:35.235Z,20.89
2022-07-25T21:19:37.021Z,20.88
2022-07-25T21:21:38.894Z,20.76
2022-07-25T21:23:41.277Z,20.71
2022-07-25T21:25:43.137Z,20.85
2022-07-25T21:27:45.011Z,20.83
2022-07-25T21:29:46.885Z,20.72
2022-07-25T21:31:48.729Z,20.77
2022-07-25T21:33:50.645Z,20.72
2022-07-25T21:35:53.729Z,20.64
2022-07-25T21:37:55.712Z,20.54
2022-07-25T21:39:57.453Z,20.53
2022-07-25T21:41:59.317Z,20.55
2022-07-25T21:44:02.884Z,20.42
2022-07-25T21:46:04.777Z,20.44
2022-07-25T21:48:06.693Z,20.26
2022-07-25T21:50:09.126Z,20.46
2022-07-25T21:52:13.862Z,20.36
2022-07-25T21:54:16.090Z,20.39
2022-07-25T21:56:18.292Z,20.42
2022-07-25T21:58:20.070Z,20.39
2022-07-25T22:00:22.678Z,20.30
2022-07-25T22:04:44.196Z,20.17
2022-07-25T22:06:46.035Z,20.07
2022-07-25T22:08:47.860Z,20.05
2022-07-25T22:10:50.370Z,20.02
2022-07-25T22:12:52.184Z,20.13
2022-07-25T22:14:54.106Z,20.02
2022-07-25T22:16:55.976Z,20.00
2022-07-25T22:18:57.958Z,19.87
2022-07-25T22:20:59.867Z,19.92
2022-07-25T22:23:02.038Z,19.89
2022-07-25T22:25:04.378Z,19.79
2022-07-25T22:27:06.411Z,19.82
2022-07-25T22:29:08.821Z,19.91
2022-07-25T22:31:10.814Z,19.91
2022-07-25T22:33:12.683Z,19.91
2022-07-25T22:35:14.997Z,19.90
2022-07-25T22:37:16.826Z,19.93
2022-07-25T22:39:19.088Z,19.76
2022-07-25T22:41:21.000Z,19.88
2022-07-25T22:43:22.955Z,19.76
2022-07-25T22:45:24.857Z,19.86
2022-07-25T22:47:26.827Z,19.76
2022-07-25T22:49:28.651Z,19.57
2022-07-25T22:51:30.513Z,19.60
2022-07-25T22:53:32.511Z,19.48
2022-07-25T22:55:34.400Z,19.48
2022-07-25T22:57:37.558Z,19.42
2022-07-25T22:59:39.677Z,19.19
2022-07-25T23:01:41.460Z,19.35
2022-07-25T23:03:43.452Z,19.42
2022-07-25T23:05:45.552Z,19.23
2022-07-25T23:07:47.346Z,19.36
2022-07-25T23:09:49.374Z,19.41
2022-07-25T23:11:51.399Z,19.51
2022-07-25T23:13:53.490Z,19.48
2022-07-25T23:15:55.591Z,19.46
2022-07-25T23:17:57.613Z,19.47
2022-07-25T23:19:59.638Z,19.43
2022-07-25T23:22:01.861Z,19.42
2022-07-25T23:24:04.043Z,19.41
2022-07-25T23:26:05.867Z,19.15
2022-07-25T23:28:07.722Z,19.39
2022-07-25T23:30:10.019Z,19.41
2022-07-25T23:32:12.008Z,19.23
2022-07-25T23:34:13.928Z,19.26
2022-07-25T23:36:15.800Z,19.27
2022-07-25T23:38:17.524Z,19.07
2022-07-25T23:40:19.396Z,19.26
2022-07-25T23:42:21.375Z,19.13
2022-07-25T23:46:43.384Z,18.78
2022-07-25T23:48:46.612Z,18.75
2022-07-25T23:50:50.281Z,18.67
2022-07-25T23:52:52.827Z,18.60
2022-07-25T23:54:54.928Z,18.67
2022-07-25T23:56:56.690Z,18.66
2022-07-25T23:58:58.549Z,18.79
